Time;durP1;ratioP1;P1;durP2;ratioP2;P2;SDS_P1;SDS_P2;PMS_P1;PMS_P2;Temp;Humidity;BMP_temperature;BMP_pressure;BME280_temperature;BME280_humidity;BME280_pressure;Samples;Min_cycle;Max_cycle;Signal;HPM_P1;HPM_P2
2022/11/06 00:01:14;;;;;;;12.05;6.72;;;6.60;99.90;;;;;;5093040;28;20070;-75
2022/11/06 00:03:40;;;;;;;10.30;6.55;;;6.70;99.90;;;;;;5093069;28;20024;-75
2022/11/06 00:08:52;;;;;;;12.38;6.93;;;6.60;99.90;;;;;;5094736;28;20038;-75
2022/11/06 00:11:17;;;;;;;12.20;7.40;;;6.60;99.90;;;;;;5093897;28;20024;-75
2022/11/06 00:13:46;;;;;;;12.77;7.50;;;6.50;99.90;;;;;;5094142;28;20008;-75
2022/11/06 00:16:13;;;;;;;11.15;6.70;;;6.50;99.90;;;;;;5094469;28;20028;-75
2022/11/06 00:18:40;;;;;;;12.63;6.63;;;6.50;99.90;;;;;;5094160;28;20028;-74
2022/11/06 00:21:11;;;;;;;10.52;6.20;;;6.60;99.90;;;;;;5093681;28;20050;-75
2022/11/06 00:23:37;;;;;;;11.30;5.97;;;6.50;99.90;;;;;;5093736;28;20040;-75
2022/11/06 00:26:08;;;;;;;10.05;6.63;;;6.50;99.90;;;;;;5093608;28;20493;-74
2022/11/06 00:28:34;;;;;;;12.82;6.20;;;6.30;99.90;;;;;;5093815;28;20095;-75
2022/11/06 00:31:05;;;;;;;9.90;5.88;;;6.20;99.90;;;;;;5092550;28;20635;-75
2022/11/06 00:33:31;;;;;;;10.55;6.13;;;6.20;99.90;;;;;;5092178;28;20045;-75
2022/11/06 00:35:57;;;;;;;9.07;6.40;;;6.30;99.90;;;;;;5093732;28;20050;-75
2022/11/06 00:38:23;;;;;;;8.18;6.00;;;6.30;99.90;;;;;;5093889;28;20027;-75
2022/11/06 00:40:49;;;;;;;12.70;7.00;;;6.20;99.90;;;;;;5092472;28;20028;-74
2022/11/06 00:43:15;;;;;;;13.90;6.80;;;6.10;99.90;;;;;;5099703;28;20112;-74
2022/11/06 00:45:40;;;;;;;11.98;6.90;;;6.30;99.90;;;;;;5093794;28;20099;-75
2022/11/06 00:48:06;;;;;;;12.88;6.43;;;6.10;99.90;;;;;;5093333;28;20035;-75
2022/11/06 00:50:32;;;;;;;9.75;6.35;;;6.20;99.90;;;;;;5093378;28;20089;-75
2022/11/06 00:52:58;;;;;;;12.02;6.50;;;6.20;99.90;;;;;;5093292;28;20020;-74
2022/11/06 00:55:24;;;;;;;12.85;7.57;;;6.00;99.90;;;;;;5093487;28;20028;-75
2022/11/06 00:57:49;;;;;;;12.43;7.05;;;6.10;99.90;;;;;;5093345;28;20515;-74
2022/11/06 01:00:17;;;;;;;11.82;6.20;;;6.20;99.90;;;;;;5093626;28;20024;-75
2022/11/06 01:02:44;;;;;;;12.07;7.20;;;6.10;99.90;;;;;;5091608;28;20497;-74
2022/11/06 01:05:11;;;;;;;10.80;6.60;;;6.10;99.90;;;;;;5093340;28;20130;-75
2022/11/06 01:07:36;;;;;;;14.88;7.47;;;6.10;99.90;;;;;;5092991;28;20024;-75
2022/11/06 01:10:03;;;;;;;13.18;7.80;;;6.00;99.90;;;;;;5091569;28;20534;-75
2022/11/06 01:12:33;;;;;;;13.70;7.78;;;6.00;99.90;;;;;;5092654;28;20024;-75
2022/11/06 01:14:59;;;;;;;12.32;7.35;;;6.10;99.90;;;;;;5092860;28;20020;-75
2022/11/06 01:17:25;;;;;;;12.10;7.20;;;6.00;99.90;;;;;;5092830;28;20024;-75
2022/11/06 01:19:51;;;;;;;11.23;7.50;;;6.00;99.90;;;;;;5092878;28;20038;-74
2022/11/06 01:22:16;;;;;;;13.65;7.97;;;5.80;99.90;;;;;;5092883;28;20103;-75
2022/11/06 01:24:42;;;;;;;12.70;7.40;;;5.90;99.90;;;;;;5092874;28;20542;-75
2022/11/06 01:27:08;;;;;;;15.45;8.38;;;6.00;99.90;;;;;;5092630;28;20054;-74
2022/11/06 01:29:34;;;;;;;13.02;7.88;;;5.80;99.90;;;;;;5093097;28;20066;-75
2022/11/06 01:32:00;;;;;;;11.88;6.90;;;5.80;99.90;;;;;;5092582;28;20078;-75
2022/11/06 01:34:26;;;;;;;14.40;7.57;;;5.70;99.90;;;;;;5092705;28;20016;-75
2022/11/06 01:36:52;;;;;;;10.68;6.40;;;5.80;99.90;;;;;;5090966;28;20515;-75
2022/11/06 01:39:18;;;;;;;12.05;6.80;;;5.70;99.90;;;;;;5092664;28;20182;-75
2022/11/06 01:41:48;;;;;;;11.50;6.65;;;5.70;99.90;;;;;;5100258;28;20531;-75
2022/11/06 01:44:13;;;;;;;12.13;6.50;;;5.70;99.90;;;;;;5092002;28;20032;-75
2022/11/06 01:46:39;;;;;;;10.40;6.38;;;5.60;99.90;;;;;;5092282;28;20478;-75
2022/11/06 01:49:12;;;;;;;12.43;6.75;;;5.70;99.90;;;;;;5092627;28;20027;-75
2022/11/06 01:51:42;;;;;;;10.40;6.18;;;5.70;99.90;;;;;;5092567;28;20051;-75
2022/11/06 01:54:10;;;;;;;9.23;6.03;;;5.70;99.90;;;;;;5092667;28;20020;-75
2022/11/06 01:56:38;;;;;;;9.70;6.13;;;5.60;99.90;;;;;;5092537;28;20051;-75
2022/11/06 01:59:05;;;;;;;10.40;6.15;;;5.50;99.90;;;;;;5092473;28;20024;-75
2022/11/06 02:01:31;;;;;;;9.18;5.70;;;5.50;99.90;;;;;;5092139;28;20072;-75
2022/11/06 02:04:21;;;;;;;10.05;5.97;;;5.50;99.90;;;;;;5092345;28;20498;-75
2022/11/06 02:06:48;;;;;;;10.10;6.35;;;5.60;99.90;;;;;;5081016;28;20077;-75
2022/11/06 02:09:14;;;;;;;10.80;6.18;;;5.60;99.90;;;;;;5092470;28;20024;-74
2022/11/06 02:11:49;;;;;;;12.52;6.78;;;5.50;99.90;;;;;;5091999;28;20077;-75
2022/11/06 02:14:35;;;;;;;14.50;7.40;;;5.30;99.90;;;;;;5092169;28;20091;-75
2022/11/06 02:17:10;;;;;;;14.70;7.65;;;5.20;99.90;;;;;;5092284;28;20035;-75
2022/11/06 02:19:45;;;;;;;20.65;8.15;;;5.40;99.90;;;;;;5092458;28;20016;-74
2022/11/06 02:22:24;;;;;;;18.77;7.90;;;5.60;99.90;;;;;;5092902;28;20047;-74
2022/11/06 02:25:11;;;;;;;19.05;9.77;;;5.50;99.90;;;;;;5096202;28;20062;-75
2022/11/06 02:27:38;;;;;;;17.67;9.48;;;5.50;99.90;;;;;;5096245;28;20032;-75
2022/11/06 02:30:06;;;;;;;23.45;9.52;;;5.40;99.90;;;;;;5094248;28;20020;-74
2022/11/06 02:32:50;;;;;;;21.80;9.55;;;5.50;99.90;;;;;;5095993;28;20016;-75
2022/11/06 02:35:25;;;;;;;20.90;10.20;;;5.50;99.90;;;;;;5096193;28;20020;-75
2022/11/06 02:38:01;;;;;;;18.75;8.68;;;5.40;99.90;;;;;;5094442;28;20119;-75
2022/11/06 02:40:32;;;;;;;16.52;9.70;;;5.50;99.90;;;;;;5096211;28;20028;-75
2022/11/06 02:43:01;;;;;;;21.23;9.13;;;5.50;99.90;;;;;;5103906;28;20024;-74
2022/11/06 02:45:30;;;;;;;15.85;8.65;;;5.50;99.90;;;;;;5095594;28;20035;-75
2022/11/06 02:47:59;;;;;;;23.17;9.75;;;5.60;99.90;;;;;;5095723;28;20032;-75
2022/11/06 02:50:36;;;;;;;16.58;9.32;;;5.30;99.90;;;;;;5095884;28;20013;-75
2022/11/06 02:53:05;;;;;;;20.35;9.57;;;5.30;99.90;;;;;;5095736;28;20070;-75
2022/11/06 02:55:44;;;;;;;17.85;9.13;;;5.30;99.90;;;;;;5096048;28;20071;-74
2022/11/06 02:58:16;;;;;;;19.05;9.95;;;5.30;99.90;;;;;;5095882;28;20036;-75
2022/11/06 03:00:47;;;;;;;18.45;10.05;;;5.20;99.90;;;;;;5095248;28;20092;-75
2022/11/06 03:03:22;;;;;;;;;;;5.40;99.90;;;;;;5096038;28;20036;-75
2022/11/06 03:05:55;;;;;;;15.02;9.30;;;5.50;99.90;;;;;;5094159;28;19927;-75
2022/11/06 03:08:39;;;;;;;15.48;8.80;;;5.40;99.90;;;;;;5095540;28;20028;-75
2022/11/06 03:11:11;;;;;;;14.93;8.07;;;5.20;99.90;;;;;;5095244;28;20169;-75
2022/11/06 03:13:57;;;;;;;15.52;8.30;;;5.20;99.90;;;;;;5095290;28;20038;-74
2022/11/06 03:16:32;;;;;;;22.05;10.82;;;5.20;99.90;;;;;;5094081;28;20074;-74
2022/11/06 03:19:30;;;;;;;19.10;9.90;;;5.10;99.90;;;;;;5094099;28;20051;-74
2022/11/06 03:22:13;;;;;;;14.68;9.07;;;5.20;99.90;;;;;;5032544;28;20444;-75
2022/11/06 03:25:02;;;;;;;14.60;8.77;;;5.20;99.90;;;;;;5032486;28;20049;-75
2022/11/06 03:27:38;;;;;;;17.77;8.25;;;5.30;99.90;;;;;;5015630;28;20076;-75
2022/11/06 03:30:09;;;;;;;16.23;8.95;;;5.30;99.90;;;;;;5032543;28;20030;-74
2022/11/06 03:32:40;;;;;;;15.40;9.02;;;5.30;99.90;;;;;;5032404;28;20034;-74
2022/11/06 03:35:13;;;;;;;15.77;8.93;;;5.30;99.90;;;;;;5032394;28;20057;-75
2022/11/06 03:37:45;;;;;;;16.55;8.23;;;5.20;99.90;;;;;;5015606;28;20041;-75
2022/11/06 03:40:15;;;;;;;11.52;7.25;;;5.20;99.90;;;;;;5032361;28;20034;-74
2022/11/06 03:42:43;;;;;;;18.30;8.48;;;5.20;99.90;;;;;;5039878;28;20116;-75
2022/11/06 03:45:17;;;;;;;14.05;7.53;;;5.20;99.90;;;;;;5015430;28;20136;-74
2022/11/06 03:47:52;;;;;;;14.70;8.02;;;5.10;99.90;;;;;;5015345;28;20526;-75
2022/11/06 03:50:20;;;;;;;17.20;8.07;;;5.20;99.90;;;;;;5031898;28;20080;-74
2022/11/06 03:52:54;;;;;;;14.02;8.20;;;5.20;99.90;;;;;;5031874;28;20076;-75
2022/11/06 03:55:26;;;;;;;14.18;7.82;;;5.10;99.90;;;;;;5032018;28;20017;-74
2022/11/06 03:58:01;;;;;;;14.00;7.78;;;5.10;99.90;;;;;;5072204;28;20090;-75
2022/11/06 04:00:27;;;;;;;15.20;7.72;;;5.00;99.90;;;;;;5094438;28;20020;-74
2022/11/06 04:03:03;;;;;;;15.38;8.18;;;5.10;99.90;;;;;;5094579;28;20438;-75
2022/11/06 04:05:38;;;;;;;13.73;7.55;;;5.10;99.90;;;;;;5093196;28;20535;-74
2022/11/06 04:14:00;;;;;;;10.32;6.50;;;5.10;99.90;;;;;;5094619;28;20085;-74
2022/11/06 04:16:38;;;;;;;13.57;7.03;;;5.00;99.90;;;;;;5092677;28;20069;-75
2022/11/06 04:19:15;;;;;;;12.48;7.07;;;5.00;99.90;;;;;;5094313;28;20569;-74
2022/11/06 04:21:50;;;;;;;10.63;6.88;;;5.00;99.90;;;;;;5093914;28;20115;-75
2022/11/06 04:27:40;;;;;;;10.63;6.50;;;5.10;99.90;;;;;;5093828;28;20039;-74
2022/11/06 04:30:09;;;;;;;11.20;7.03;;;5.00;99.90;;;;;;5094095;28;20028;-74
2022/11/06 04:32:53;;;;;;;10.57;6.10;;;5.10;99.90;;;;;;5092323;28;20019;-74
2022/11/06 04:35:40;;;;;;;10.38;6.78;;;5.20;99.90;;;;;;5093973;28;20028;-74
2022/11/06 04:38:47;;;;;;;9.38;5.80;;;5.20;99.90;;;;;;5093693;28;20059;-74
2022/11/06 04:41:44;;;;;;;10.13;5.85;;;5.20;99.90;;;;;;5034319;28;20108;-74
2022/11/06 04:44:36;;;;;;;9.93;5.30;;;5.20;99.90;;;;;;5030967;28;20064;-74
2022/11/06 04:47:08;;;;;;;9.95;5.65;;;5.10;99.90;;;;;;5030263;28;20092;-74
2022/11/06 04:49:37;;;;;;;9.40;5.43;;;5.00;99.90;;;;;;5030989;28;20025;-74
2022/11/06 04:52:07;;;;;;;8.73;5.00;;;5.10;99.90;;;;;;5030742;28;20030;-75
2022/11/06 04:54:33;;;;;;;7.32;4.80;;;5.10;99.90;;;;;;5030578;28;20030;-74
2022/11/06 04:57:00;;;;;;;8.55;4.70;;;5.00;99.90;;;;;;5030971;28;20036;-74
2022/11/06 04:59:26;;;;;;;7.40;5.00;;;4.90;99.90;;;;;;5014174;28;20029;-74
2022/11/06 05:01:52;;;;;;;8.65;5.25;;;4.90;99.90;;;;;;5030416;28;20041;-74
2022/11/06 05:04:18;;;;;;;8.77;5.22;;;4.90;99.90;;;;;;5030820;28;20036;-74
2022/11/06 05:06:44;;;;;;;8.05;5.25;;;5.00;99.90;;;;;;5030661;28;20037;-75
2022/11/06 05:09:10;;;;;;;6.70;4.60;;;4.90;99.90;;;;;;5030661;28;20029;-74
2022/11/06 05:11:37;;;;;;;7.45;4.70;;;4.90;99.90;;;;;;5030413;28;20060;-74
2022/11/06 05:14:03;;;;;;;8.50;5.10;;;4.70;99.90;;;;;;5033761;28;20021;-74
2022/11/06 05:16:29;;;;;;;7.47;5.05;;;4.70;99.90;;;;;;5072889;28;20510;-74
2022/11/06 05:18:54;;;;;;;8.10;4.93;;;4.70;99.90;;;;;;5072859;28;20031;-75
2022/11/06 05:24:05;;;;;;;8.95;5.03;;;4.80;99.90;;;;;;5072201;28;20059;-75
2022/11/06 05:26:30;;;;;;;7.05;4.78;;;4.60;99.90;;;;;;5072411;28;20047;-75
2022/11/06 05:28:56;;;;;;;6.85;4.32;;;4.60;99.90;;;;;;5072942;28;20020;-75
2022/11/06 05:31:23;;;;;;;6.32;4.38;;;4.70;99.90;;;;;;5072534;28;20485;-75
2022/11/06 05:33:48;;;;;;;11.40;5.43;;;4.70;99.90;;;;;;5071015;28;20116;-75
2022/11/06 05:36:14;;;;;;;6.43;4.15;;;4.70;99.90;;;;;;5072604;28;20068;-75
2022/11/06 05:38:40;;;;;;;7.35;4.63;;;4.70;99.90;;;;;;5070696;28;20017;-75
2022/11/06 05:41:05;;;;;;;6.00;4.05;;;4.70;99.90;;;;;;5077576;28;20896;-75
2022/11/06 05:43:31;;;;;;;7.60;4.30;;;4.80;99.90;;;;;;5097889;28;20020;-74
2022/11/06 05:45:59;;;;;;;7.00;4.75;;;4.70;99.90;;;;;;5091283;28;20046;-74
2022/11/06 05:48:25;;;;;;;7.95;4.38;;;4.70;99.90;;;;;;5090976;28;20039;-75
2022/11/06 05:50:51;;;;;;;6.78;4.35;;;4.50;99.90;;;;;;5092448;28;20020;-75
2022/11/06 05:53:17;;;;;;;6.43;4.32;;;4.60;99.90;;;;;;5092084;28;20469;-75
2022/11/06 05:55:46;;;;;;;8.35;4.63;;;4.50;99.90;;;;;;5092825;28;20032;-75
2022/11/06 05:58:13;;;;;;;7.57;3.88;;;4.50;99.90;;;;;;5091768;28;20477;-75
2022/11/06 06:00:39;;;;;;;6.95;3.92;;;4.50;99.90;;;;;;5090934;28;20097;-75
2022/11/06 06:03:04;;;;;;;7.15;3.97;;;4.50;99.90;;;;;;5090862;28;20485;-75
2022/11/06 06:05:30;;;;;;;5.15;3.90;;;4.50;99.90;;;;;;5091090;28;20488;-75
2022/11/06 06:07:56;;;;;;;5.40;3.67;;;4.50;99.90;;;;;;5091744;28;20055;-75
2022/11/06 06:10:21;;;;;;;7.90;3.85;;;4.40;99.90;;;;;;5092565;28;20032;-75
2022/11/06 06:12:50;;;;;;;5.30;3.78;;;4.40;99.90;;;;;;5091991;28;20024;-75
2022/11/06 06:15:17;;;;;;;5.05;4.10;;;4.40;99.90;;;;;;5090789;28;20043;-75
2022/11/06 06:17:44;;;;;;;7.18;4.25;;;4.20;99.90;;;;;;5090619;28;20039;-75
2022/11/06 06:20:10;;;;;;;6.97;3.88;;;4.20;99.90;;;;;;5092531;28;20043;-75
2022/11/06 06:22:36;;;;;;;6.55;3.83;;;4.30;99.90;;;;;;5091523;28;20034;-75
2022/11/06 06:25:01;;;;;;;6.53;3.63;;;4.30;99.90;;;;;;5092406;28;20110;-75
2022/11/06 06:27:27;;;;;;;4.93;3.78;;;4.20;99.90;;;;;;5092127;28;20481;-75
2022/11/06 06:29:53;;;;;;;7.38;4.13;;;4.30;99.90;;;;;;5092225;28;20024;-75
2022/11/06 06:32:19;;;;;;;6.95;4.57;;;4.20;99.90;;;;;;5092389;28;20020;-75
2022/11/06 06:34:44;;;;;;;6.72;3.75;;;4.20;99.90;;;;;;5090586;28;20051;-75
2022/11/06 06:37:10;;;;;;;6.18;3.90;;;4.00;99.90;;;;;;5090147;28;20421;-75
2022/11/06 06:39:36;;;;;;;6.25;4.30;;;4.10;99.90;;;;;;5092045;28;20456;-75
2022/11/06 06:42:01;;;;;;;9.52;4.38;;;4.30;99.90;;;;;;5100921;28;20043;-75
2022/11/06 06:44:27;;;;;;;6.03;4.40;;;4.20;99.90;;;;;;5089768;28;20038;-75
2022/11/06 06:46:53;;;;;;;7.88;4.57;;;4.00;99.90;;;;;;5090823;28;20032;-75
2022/11/06 06:49:19;;;;;;;8.82;4.65;;;4.10;99.90;;;;;;5091699;28;20474;-75
2022/11/06 06:51:47;;;;;;;6.03;4.32;;;4.10;99.90;;;;;;5090307;28;20494;-75
2022/11/06 06:54:12;;;;;;;7.35;5.07;;;4.10;99.90;;;;;;5092036;28;20099;-75
2022/11/06 06:56:39;;;;;;;6.13;3.85;;;4.00;99.90;;;;;;5091935;28;20071;-76
2022/11/06 06:59:05;;;;;;;6.80;4.10;;;4.10;99.90;;;;;;5091987;28;20020;-75
2022/11/06 07:01:31;;;;;;;7.32;5.15;;;3.90;99.90;;;;;;5091863;28;20020;-75
2022/11/06 07:03:56;;;;;;;6.43;4.47;;;3.90;99.90;;;;;;5091553;28;20035;-75
2022/11/06 07:06:23;;;;;;;7.07;3.95;;;3.90;99.90;;;;;;5091382;28;20576;-76
2022/11/06 07:08:49;;;;;;;6.90;4.30;;;3.90;99.90;;;;;;5093382;28;20032;-76
2022/11/06 07:11:17;;;;;;;6.55;4.03;;;4.00;99.90;;;;;;5095335;28;20024;-76
2022/11/06 07:13:42;;;;;;;7.00;4.43;;;4.10;99.90;;;;;;5095439;28;20024;-76
2022/11/06 07:16:10;;;;;;;6.97;4.60;;;4.30;99.90;;;;;;5095448;28;20090;-76
2022/11/06 07:18:36;;;;;;;6.05;4.65;;;4.30;99.90;;;;;;5095326;28;20024;-76
2022/11/06 07:21:11;;;;;;;7.35;4.60;;;4.30;99.90;;;;;;5093612;28;20020;-76
2022/11/06 07:23:38;;;;;;;6.55;4.70;;;4.40;99.90;;;;;;5093156;28;20490;-76
2022/11/06 07:26:04;;;;;;;6.57;4.93;;;4.60;99.90;;;;;;5094980;28;20012;-76
2022/11/06 07:28:31;;;;;;;7.03;5.35;;;4.60;99.90;;;;;;5093651;28;20501;-76
2022/11/06 07:30:58;;;;;;;8.10;5.25;;;4.50;99.90;;;;;;5095489;28;20049;-76
2022/11/06 07:33:24;;;;;;;7.53;5.05;;;4.60;99.90;;;;;;5093660;28;20028;-76
2022/11/06 07:35:49;;;;;;;9.63;5.35;;;4.70;99.90;;;;;;5093353;28;20023;-76
2022/11/06 07:38:15;;;;;;;7.22;5.75;;;4.90;99.90;;;;;;5094647;28;20405;-76
2022/11/06 07:40:41;;;;;;;5.25;4.25;;;4.80;99.90;;;;;;5093638;28;20401;-76
2022/11/06 07:43:09;;;;;;;6.47;5.60;;;4.80;99.90;;;;;;5102937;28;20119;-76
2022/11/06 07:45:35;;;;;;;5.45;4.40;;;4.80;99.90;;;;;;5095044;28;20028;-76
2022/11/06 07:48:02;;;;;;;6.18;4.85;;;4.90;99.90;;;;;;5093478;28;20059;-75
2022/11/06 07:50:28;;;;;;;7.32;4.65;;;5.00;99.90;;;;;;5094287;28;20053;-76
2022/11/06 07:52:53;;;;;;;5.70;4.07;;;4.90;99.90;;;;;;5094498;28;20028;-75
2022/11/06 07:55:19;;;;;;;6.22;4.43;;;5.10;99.90;;;;;;5093283;28;20383;-75
2022/11/06 07:57:45;;;;;;;5.13;3.47;;;5.10;99.90;;;;;;5094858;28;20024;-75
2022/11/06 08:00:12;;;;;;;5.55;3.83;;;5.20;99.90;;;;;;5094701;28;20438;-75
2022/11/06 08:02:39;;;;;;;4.70;4.07;;;5.50;99.90;;;;;;5094412;28;20028;-75
2022/11/06 08:05:04;;;;;;;5.60;4.20;;;5.60;99.90;;;;;;5092716;28;20028;-75
2022/11/06 08:07:30;;;;;;;5.47;4.45;;;5.60;99.90;;;;;;5094271;28;20362;-75
2022/11/06 08:09:56;;;;;;;4.93;3.85;;;5.70;99.90;;;;;;5094505;28;20101;-75
2022/11/06 08:12:21;;;;;;;6.47;4.15;;;5.80;99.90;;;;;;5094305;28;20035;-75
2022/11/06 08:14:47;;;;;;;5.22;3.20;;;5.90;99.90;;;;;;5093847;28;20103;-75
2022/11/06 08:17:13;;;;;;;4.40;3.35;;;6.00;99.90;;;;;;5094234;28;20042;-75
2022/11/06 08:19:38;;;;;;;6.25;3.88;;;6.30;99.90;;;;;;5091840;28;20500;-75
2022/11/06 08:22:04;;;;;;;6.93;4.13;;;6.30;99.90;;;;;;5092538;28;20501;-75
2022/11/06 08:24:30;;;;;;;5.63;4.05;;;7.00;99.90;;;;;;5094055;28;20493;-74
2022/11/06 08:26:57;;;;;;;6.53;4.05;;;7.60;99.90;;;;;;5094104;28;20562;-74
2022/11/06 08:29:23;;;;;;;6.55;4.13;;;7.00;99.90;;;;;;5093889;28;20046;-74
2022/11/06 08:31:48;;;;;;;5.93;4.80;;;6.70;99.90;;;;;;5093888;28;20028;-74
2022/11/06 08:34:14;;;;;;;7.22;4.70;;;6.60;99.90;;;;;;5093856;28;20032;-75
2022/11/06 08:36:44;;;;;;;6.60;5.03;;;6.70;99.90;;;;;;5092201;28;20496;-74
2022/11/06 08:39:10;;;;;;;7.18;5.07;;;6.50;99.90;;;;;;5092191;28;20114;-75
2022/11/06 08:41:37;;;;;;;9.98;5.30;;;7.30;99.90;;;;;;5100750;28;20054;-75
2022/11/06 08:44:02;;;;;;;7.72;5.65;;;7.30;99.90;;;;;;5093469;28;20036;-74
2022/11/06 08:46:28;;;;;;;11.48;6.30;;;7.80;99.90;;;;;;5093307;28;20500;-75
2022/11/06 08:48:54;;;;;;;10.48;6.82;;;7.60;99.90;;;;;;5093678;28;20508;-75
2022/11/06 08:51:19;;;;;;;15.68;8.60;;;8.50;99.90;;;;;;5091833;28;20456;-75
2022/11/06 08:53:45;;;;;;;16.30;8.00;;;8.50;99.90;;;;;;5093052;28;20035;-75
2022/11/06 08:56:11;;;;;;;15.18;7.72;;;7.60;99.90;;;;;;5093498;28;20028;-75
2022/11/06 08:58:36;;;;;;;11.23;6.80;;;7.10;99.90;;;;;;5093378;28;20103;-75
2022/11/06 09:01:02;;;;;;;10.68;5.90;;;7.10;99.90;;;;;;5091839;28;20111;-75
2022/11/06 09:03:28;;;;;;;9.65;5.85;;;7.20;99.90;;;;;;5093255;28;20474;-75
2022/11/06 09:05:53;;;;;;;10.43;5.13;;;7.80;99.90;;;;;;5091763;28;20113;-75
2022/11/06 09:08:19;;;;;;;7.30;5.03;;;8.10;99.90;;;;;;5093041;28;20024;-75
2022/11/06 09:10:45;;;;;;;9.13;5.40;;;8.00;99.90;;;;;;5093111;28;20034;-75
2022/11/06 09:13:11;;;;;;;8.27;4.88;;;8.00;99.90;;;;;;5093210;28;20428;-75
2022/11/06 09:15:37;;;;;;;8.70;4.47;;;8.60;99.90;;;;;;5092885;28;20032;-75
2022/11/06 09:18:03;;;;;;;7.38;4.68;;;9.00;99.90;;;;;;5093052;28;20069;-75
2022/11/06 09:20:29;;;;;;;6.57;4.28;;;8.60;99.90;;;;;;5093074;28;20066;-75
2022/11/06 09:23:05;;;;;;;6.85;4.22;;;8.70;99.90;;;;;;5092411;28;20076;-76
2022/11/06 09:25:31;;;;;;;5.72;3.92;;;8.50;99.90;;;;;;5092818;28;20085;-75
2022/11/06 09:27:57;;;;;;;6.53;4.43;;;8.40;99.90;;;;;;5091421;28;20115;-75
2022/11/06 09:30:24;;;;;;;8.80;4.40;;;8.60;99.90;;;;;;5092479;28;20024;-75
2022/11/06 09:32:56;;;;;;;4.97;3.65;;;8.70;99.90;;;;;;5092582;28;20024;-75
2022/11/06 09:35:24;;;;;;;5.32;3.88;;;8.90;99.90;;;;;;5092601;28;20024;-75
2022/11/06 09:37:49;;;;;;;5.10;3.50;;;9.10;99.90;;;;;;5091057;28;20066;-75
2022/11/06 09:40:25;;;;;;;7.38;3.65;;;9.20;99.90;;;;;;5092541;28;20107;-75
2022/11/06 09:43:20;;;;;;;4.80;3.22;;;9.40;99.90;;;;;;5099449;28;20204;-75
2022/11/06 09:45:49;;;;;;;5.22;3.08;;;9.60;99.90;;;;;;5010009;28;20042;-75
2022/11/06 09:48:27;;;;;;;6.55;3.40;;;9.70;99.90;;;;;;5010449;28;20053;-76
2022/11/06 09:51:06;;;;;;;4.35;2.65;;;9.90;99.90;;;;;;4993662;28;20034;-76
2022/11/06 09:53:42;;;;;;;4.60;2.42;;;10.10;99.90;;;;;;5010236;28;20044;-76
2022/11/06 09:56:11;;;;;;;4.72;2.75;;;10.30;99.90;;;;;;5010209;28;20077;-75
2022/11/06 09:58:40;;;;;;;5.43;2.53;;;10.50;99.90;;;;;;5010387;28;20033;-75
2022/11/06 10:01:13;;;;;;;2.45;1.85;;;10.70;99.90;;;;;;5010037;28;20037;-75
2022/11/06 10:03:53;;;;;;;3.13;1.95;;;10.80;99.90;;;;;;5010278;28;20098;-75
2022/11/06 10:06:21;;;;;;;1.85;1.60;;;10.90;99.90;;;;;;5009929;28;20038;-76
2022/11/06 10:08:48;;;;;;;2.10;1.52;;;11.00;99.90;;;;;;5009814;28;20076;-75
2022/11/06 10:11:14;;;;;;;3.92;2.03;;;11.20;99.90;;;;;;4993220;28;20054;-75
2022/11/06 10:13:42;;;;;;;2.75;1.73;;;11.30;99.90;;;;;;4993255;28;20483;-75
2022/11/06 10:16:31;;;;;;;4.25;1.52;;;11.50;99.90;;;;;;5009715;28;20528;-76
2022/11/06 10:19:23;;;;;;;4.32;1.50;;;11.60;99.90;;;;;;5010079;28;20103;-75
2022/11/06 10:22:07;;;;;;;3.03;1.23;;;11.60;99.90;;;;;;5016635;28;20018;-76
2022/11/06 10:25:01;;;;;;;3.88;1.42;;;11.80;99.90;;;;;;5070261;28;20052;-76
2022/11/06 10:27:34;;;;;;;2.13;1.20;;;11.90;99.90;;;;;;5084305;28;20037;-76
2022/11/06 10:30:03;;;;;;;2.58;1.38;;;11.90;99.90;;;;;;5070309;28;20028;-76
2022/11/06 10:32:49;;;;;;;2.72;1.10;;;11.90;99.90;;;;;;5071946;28;20039;-75
2022/11/06 10:35:24;;;;;;;2.55;1.50;;;11.90;99.90;;;;;;5071819;28;20016;-76
2022/11/06 10:37:53;;;;;;;2.38;1.35;;;12.20;99.90;;;;;;5070293;28;20060;-76
2022/11/06 10:40:24;;;;;;;1.80;1.30;;;12.10;99.90;;;;;;5070378;28;20052;-75
2022/11/06 10:43:30;;;;;;;3.13;1.57;;;12.10;99.90;;;;;;5095843;28;20118;-75
2022/11/06 10:46:23;;;;;;;3.65;1.15;;;12.10;99.90;;;;;;5095888;28;20299;-75
2022/11/06 10:48:58;;;;;;;4.10;1.50;;;12.20;99.90;;;;;;5096234;28;20517;-76
2022/11/06 10:51:36;;;;;;;2.20;1.05;;;12.50;99.90;;;;;;5074033;28;20024;-75
2022/11/06 10:54:20;;;;;;;2.95;1.42;;;12.40;99.90;;;;;;5075501;28;20036;-75
2022/11/06 10:56:54;;;;;;;2.97;1.17;;;12.50;99.90;;;;;;5074186;28;20044;-76
2022/11/06 10:59:20;;;;;;;3.92;1.40;;;12.70;99.90;;;;;;5073992;28;20029;-76
2022/11/06 11:01:46;;;;;;;2.15;1.17;;;12.70;99.90;;;;;;5074025;28;20017;-76
2022/11/06 11:04:12;;;;;;;2.97;1.30;;;12.90;99.90;;;;;;5075484;28;20615;-75
2022/11/06 11:06:41;;;;;;;3.25;1.55;;;12.70;99.90;;;;;;5074992;28;20074;-76
2022/11/06 11:09:33;;;;;;;2.88;1.10;;;12.60;99.90;;;;;;5075388;28;20062;-76
2022/11/06 11:12:00;;;;;;;3.35;1.67;;;13.00;99.90;;;;;;5070926;28;20056;-76
2022/11/06 11:14:29;;;;;;;3.00;1.50;;;13.30;99.90;;;;;;5084095;28;20024;-76
2022/11/06 11:16:57;;;;;;;3.03;1.20;;;13.50;99.90;;;;;;5095201;28;20036;-76
2022/11/06 11:19:32;;;;;;;2.85;1.73;;;13.30;99.90;;;;;;5095388;28;20034;-75
2022/11/06 11:22:19;;;;;;;2.47;1.17;;;13.30;99.90;;;;;;5093655;28;20032;-76
2022/11/06 11:25:03;;;;;;;2.63;1.10;;;13.40;99.90;;;;;;5094865;28;20044;-76
2022/11/06 11:27:31;;;;;;;2.58;1.23;;;13.30;99.90;;;;;;5094810;28;20020;-75
2022/11/06 11:29:57;;;;;;;3.35;1.30;;;13.60;99.90;;;;;;5095244;28;20028;-76
2022/11/06 11:32:23;;;;;;;2.28;1.13;;;13.60;99.90;;;;;;5095470;28;20112;-76
2022/11/06 11:34:54;;;;;;;3.50;1.25;;;13.80;99.90;;;;;;5095233;28;20032;-76
2022/11/06 11:37:30;;;;;;;1.15;0.98;;;13.90;99.90;;;;;;5094646;28;20026;-76
2022/11/06 11:40:35;;;;;;;3.78;1.30;;;13.90;99.90;;;;;;5094708;28;20081;-76
2022/11/06 11:43:25;;;;;;;2.95;1.30;;;14.10;99.90;;;;;;5103456;28;20020;-75
2022/11/06 11:46:00;;;;;;;1.92;1.27;;;14.60;99.90;;;;;;5093516;28;20518;-75
2022/11/06 11:48:26;;;;;;;2.28;1.23;;;14.40;99.90;;;;;;5094996;28;20024;-76
2022/11/06 11:50:51;;;;;;;1.75;1.50;;;14.80;99.90;;;;;;5093242;28;20061;-76
2022/11/06 11:53:21;;;;;;;6.65;1.55;;;14.90;99.90;;;;;;5094478;28;20373;-75
2022/11/06 11:55:49;;;;;;;2.97;1.63;;;15.20;99.70;;;;;;5094387;28;20024;-76
2022/11/06 11:58:22;;;;;;;5.15;1.90;;;15.20;99.90;;;;;;5094978;28;20020;-75
2022/11/06 12:00:54;;;;;;;2.72;1.65;;;14.90;99.20;;;;;;5094615;28;20028;-76
2022/11/06 12:03:21;;;;;;;5.25;1.95;;;15.10;99.90;;;;;;5094670;28;20073;-76
2022/11/06 12:05:47;;;;;;;3.60;1.75;;;15.20;99.50;;;;;;5094323;28;20044;-76
2022/11/06 12:08:24;;;;;;;4.88;1.90;;;15.10;99.60;;;;;;5094267;28;20024;-76
2022/11/06 12:10:50;;;;;;;3.15;1.85;;;15.10;99.20;;;;;;5094096;28;20052;-76
2022/11/06 12:13:19;;;;;;;2.72;1.70;;;14.90;99.90;;;;;;5094397;28;20024;-76
2022/11/06 12:16:07;;;;;;;3.85;1.80;;;15.80;98.30;;;;;;5092784;28;20082;-76
2022/11/06 12:18:41;;;;;;;3.80;1.63;;;15.70;97.60;;;;;;5094523;28;20024;-76
2022/11/06 12:21:22;;;;;;;2.17;1.42;;;15.40;98.80;;;;;;5092599;28;20038;-76
2022/11/06 12:24:14;;;;;;;3.40;1.67;;;15.80;98.30;;;;;;5092416;28;20086;-76
2022/11/06 12:26:46;;;;;;;4.30;1.58;;;16.20;97.00;;;;;;5092728;28;20113;-76
2022/11/06 12:29:38;;;;;;;1.35;1.00;;;16.30;97.70;;;;;;5094205;28;20062;-76
2022/11/06 12:32:10;;;;;;;;;;;15.80;97.90;;;;;;5092844;28;20031;-76
2022/11/06 12:34:42;;;;;;;4.70;1.45;;;15.50;98.40;;;;;;5094163;28;19904;-76
2022/11/06 12:37:32;;;;;;;2.63;1.10;;;16.00;95.80;;;;;;5092099;28;20521;-76
2022/11/06 12:40:26;;;;;;;1.20;1.10;;;15.80;96.90;;;;;;5092231;28;20039;-76
2022/11/06 12:43:30;;;;;;;1.33;1.00;;;15.60;98.70;;;;;;5101918;28;20532;-76
2022/11/06 12:46:08;;;;;;;1.23;1.00;;;16.20;97.00;;;;;;5092307;28;20032;-76
2022/11/06 12:48:40;;;;;;;2.13;1.30;;;15.80;97.00;;;;;;5093860;28;20082;-76
2022/11/06 12:51:36;;;;;;;1.38;0.90;;;16.70;95.60;;;;;;5093497;28;20031;-76
2022/11/06 12:54:10;;;;;;;2.38;1.48;;;16.40;96.80;;;;;;5010870;28;20045;-76
2022/11/06 12:56:39;;;;;;;2.67;1.58;;;17.00;95.30;;;;;;5010904;28;20590;-76
2022/11/06 12:59:35;;;;;;;1.58;1.17;;;17.30;92.80;;;;;;5011336;28;20400;-75
2022/11/06 13:02:29;;;;;;;1.88;1.40;;;17.70;91.40;;;;;;5011011;28;20105;-76
2022/11/06 13:05:21;;;;;;;1.80;1.25;;;17.40;90.70;;;;;;5011170;28;20034;-76
2022/11/06 13:08:15;;;;;;;1.92;1.40;;;17.10;91.70;;;;;;5010145;28;20044;-76
2022/11/06 13:10:50;;;;;;;1.00;0.90;;;16.50;91.80;;;;;;4994368;28;20556;-76
2022/11/06 13:13:18;;;;;;;1.70;1.05;;;16.80;92.50;;;;;;5010470;28;20028;-76
2022/11/06 13:15:50;;;;;;;1.58;1.00;;;17.50;91.70;;;;;;5010697;28;20072;-76
2022/11/06 13:18:36;;;;;;;0.95;0.82;;;17.30;92.60;;;;;;5010987;28;20069;-76
2022/11/06 13:21:12;;;;;;;2.72;1.15;;;17.60;91.40;;;;;;4994207;28;20506;-76
2022/11/06 13:23:47;;;;;;;2.78;1.25;;;17.80;90.70;;;;;;5010366;28;20080;-76
2022/11/06 13:26:22;;;;;;;2.92;1.20;;;18.00;90.50;;;;;;5010766;28;20061;-76